LIPK/FRL METAR and TAF weather

Enter ICAO airport designator
Station Type Date Time Source
LIPK METAR 2021/07/27 20:50 UTC NOAA

LIPK 272050Z 00000KT CAVOK 25/21 Q1015


Station Type Date Time Source
LIPK Decoded METAR 2021/07/27 20:50 UTC NOAA

Forli, Italy (LIPK) 44-12N 012-04E 32M
Jul 27, 2021 - 04:50 PM EDT / 2021.07.27 2050 UTC
Wind: Calm:0
Visibility: greater than 7 mile(s):0
Temperature: 77 F (25 C)
Dew Point: 69 F (21 C)
Relative Humidity: 78%
Pressure (altimeter): 29.97 in. Hg (1015 hPa)
ob: LIPK 272050Z 00000KT CAVOK 25/21 Q1015
cycle: 21

Station Type Date Time Source
LIPK TAF 2021/07/27 18:21 UTC NOAA

TAF LIPK 271700Z 2718/2818 VRB05KT 9999 FEW050 PROB40
TEMPO 2718/2721 TSRA
BECMG 2810/2812 08012KT
BECMG 2816/2818 VRB05KT

Example: see airport list